sensor_id;sensor_type;location;lat;lon;timestamp;temperature;humidity
30999;DHT22;20549;50.042;8.968;2022-08-03T00:00:16;21.40;52.40
30999;DHT22;20549;50.042;8.968;2022-08-03T00:02:43;21.30;52.50
30999;DHT22;20549;50.042;8.968;2022-08-03T00:05:10;21.30;52.50
30999;DHT22;20549;50.042;8.968;2022-08-03T00:07:36;21.30;52.80
30999;DHT22;20549;50.042;8.968;2022-08-03T00:10:03;21.20;52.90
30999;DHT22;20549;50.042;8.968;2022-08-03T00:12:29;21.20;53.00
30999;DHT22;20549;50.042;8.968;2022-08-03T00:14:56;21.20;53.10
30999;DHT22;20549;50.042;8.968;2022-08-03T00:17:23;21.20;53.30
30999;DHT22;20549;50.042;8.968;2022-08-03T00:19:49;21.20;53.50
30999;DHT22;20549;50.042;8.968;2022-08-03T00:22:16;21.20;53.60
30999;DHT22;20549;50.042;8.968;2022-08-03T00:24:42;21.10;53.70
30999;DHT22;20549;50.042;8.968;2022-08-03T00:27:09;21.10;53.80
30999;DHT22;20549;50.042;8.968;2022-08-03T00:29:35;21.10;53.90
30999;DHT22;20549;50.042;8.968;2022-08-03T00:32:02;21.10;54.00
30999;DHT22;20549;50.042;8.968;2022-08-03T00:34:29;21.10;54.10
30999;DHT22;20549;50.042;8.968;2022-08-03T00:36:55;21.10;54.20
30999;DHT22;20549;50.042;8.968;2022-08-03T00:39:22;21.10;54.30
30999;DHT22;20549;50.042;8.968;2022-08-03T00:41:48;21.00;54.30
30999;DHT22;20549;50.042;8.968;2022-08-03T00:44:15;21.10;54.40
30999;DHT22;20549;50.042;8.968;2022-08-03T00:46:42;21.00;54.50
30999;DHT22;20549;50.042;8.968;2022-08-03T00:49:08;21.00;54.60
30999;DHT22;20549;50.042;8.968;2022-08-03T00:51:35;21.00;54.60
30999;DHT22;20549;50.042;8.968;2022-08-03T00:54:01;21.00;54.70
30999;DHT22;20549;50.042;8.968;2022-08-03T00:56:28;21.00;54.80
30999;DHT22;20549;50.042;8.968;2022-08-03T00:58:55;21.00;54.80
30999;DHT22;20549;50.042;8.968;2022-08-03T01:01:21;21.00;54.80
30999;DHT22;20549;50.042;8.968;2022-08-03T01:03:48;21.00;54.90
30999;DHT22;20549;50.042;8.968;2022-08-03T01:06:42;20.90;55.00
30999;DHT22;20549;50.042;8.968;2022-08-03T01:14:23;20.90;55.20
30999;DHT22;20549;50.042;8.968;2022-08-03T01:19:55;20.90;55.40
30999;DHT22;20549;50.042;8.968;2022-08-03T01:22:44;20.90;55.50
30999;DHT22;20549;50.042;8.968;2022-08-03T01:25:31;20.80;55.50
30999;DHT22;20549;50.042;8.968;2022-08-03T01:28:00;20.80;55.60
30999;DHT22;20549;50.042;8.968;2022-08-03T01:30:26;20.70;55.70
30999;DHT22;20549;50.042;8.968;2022-08-03T01:33:05;20.70;55.90
30999;DHT22;20549;50.042;8.968;2022-08-03T01:35:42;20.70;56.00
30999;DHT22;20549;50.042;8.968;2022-08-03T01:38:04;20.60;56.00
30999;DHT22;20549;50.042;8.968;2022-08-03T01:40:30;20.60;56.70
30999;DHT22;20549;50.042;8.968;2022-08-03T01:42:56;20.60;56.20
30999;DHT22;20549;50.042;8.968;2022-08-03T01:45:23;20.60;56.20
30999;DHT22;20549;50.042;8.968;2022-08-03T01:47:49;20.50;56.30
30999;DHT22;20549;50.042;8.968;2022-08-03T01:50:18;20.50;56.50
30999;DHT22;20549;50.042;8.968;2022-08-03T01:52:43;20.50;56.60
30999;DHT22;20549;50.042;8.968;2022-08-03T01:55:09;20.50;56.70
30999;DHT22;20549;50.042;8.968;2022-08-03T01:57:36;20.50;56.90
30999;DHT22;20549;50.042;8.968;2022-08-03T02:00:02;20.40;56.90
30999;DHT22;20549;50.042;8.968;2022-08-03T02:02:29;20.40;57.00
30999;DHT22;20549;50.042;8.968;2022-08-03T02:04:56;20.40;57.10
30999;DHT22;20549;50.042;8.968;2022-08-03T02:07:22;20.40;57.10
30999;DHT22;20549;50.042;8.968;2022-08-03T02:09:49;20.40;57.20
30999;DHT22;20549;50.042;8.968;2022-08-03T02:12:15;20.40;57.40
30999;DHT22;20549;50.042;8.968;2022-08-03T02:14:42;20.40;57.40
30999;DHT22;20549;50.042;8.968;2022-08-03T02:17:08;20.30;57.40
30999;DHT22;20549;50.042;8.968;2022-08-03T02:19:35;20.30;57.40
30999;DHT22;20549;50.042;8.968;2022-08-03T02:22:02;20.30;57.60
30999;DHT22;20549;50.042;8.968;2022-08-03T02:24:28;20.20;57.60
30999;DHT22;20549;50.042;8.968;2022-08-03T02:26:55;20.20;57.70
30999;DHT22;20549;50.042;8.968;2022-08-03T02:29:23;20.20;57.80
30999;DHT22;20549;50.042;8.968;2022-08-03T02:31:48;20.20;57.90
30999;DHT22;20549;50.042;8.968;2022-08-03T02:34:15;20.20;58.00
30999;DHT22;20549;50.042;8.968;2022-08-03T02:36:42;20.10;58.00
30999;DHT22;20549;50.042;8.968;2022-08-03T02:39:18;20.10;58.10
30999;DHT22;20549;50.042;8.968;2022-08-03T02:41:41;20.10;58.20
30999;DHT22;20549;50.042;8.968;2022-08-03T02:44:06;20.00;58.20
30999;DHT22;20549;50.042;8.968;2022-08-03T02:46:31;20.00;58.20
30999;DHT22;20549;50.042;8.968;2022-08-03T02:48:58;20.00;58.30
30999;DHT22;20549;50.042;8.968;2022-08-03T02:51:24;20.00;58.40
30999;DHT22;20549;50.042;8.968;2022-08-03T02:53:50;19.90;58.50
30999;DHT22;20549;50.042;8.968;2022-08-03T02:56:19;19.90;58.60
30999;DHT22;20549;50.042;8.968;2022-08-03T02:58:43;19.90;58.80
30999;DHT22;20549;50.042;8.968;2022-08-03T03:01:10;19.90;59.00
30999;DHT22;20549;50.042;8.968;2022-08-03T03:03:37;19.80;59.10
30999;DHT22;20549;50.042;8.968;2022-08-03T03:06:03;19.80;59.20
30999;DHT22;20549;50.042;8.968;2022-08-03T03:08:30;19.80;59.40
30999;DHT22;20549;50.042;8.968;2022-08-03T03:10:57;19.80;59.50
30999;DHT22;20549;50.042;8.968;2022-08-03T03:13:23;19.70;59.60
30999;DHT22;20549;50.042;8.968;2022-08-03T03:15:50;19.80;59.80
30999;DHT22;20549;50.042;8.968;2022-08-03T03:18:16;19.70;59.80
30999;DHT22;20549;50.042;8.968;2022-08-03T03:20:43;19.70;59.80
30999;DHT22;20549;50.042;8.968;2022-08-03T03:23:09;19.70;59.80
30999;DHT22;20549;50.042;8.968;2022-08-03T03:25:36;19.70;60.00
30999;DHT22;20549;50.042;8.968;2022-08-03T03:28:02;19.60;60.10
30999;DHT22;20549;50.042;8.968;2022-08-03T03:30:29;19.60;60.50
30999;DHT22;20549;50.042;8.968;2022-08-03T03:32:56;19.60;60.40
30999;DHT22;20549;50.042;8.968;2022-08-03T03:35:22;19.60;60.70
30999;DHT22;20549;50.042;8.968;2022-08-03T03:37:49;19.60;60.80
30999;DHT22;20549;50.042;8.968;2022-08-03T03:40:15;19.50;60.80
30999;DHT22;20549;50.042;8.968;2022-08-03T03:42:42;19.60;61.00
30999;DHT22;20549;50.042;8.968;2022-08-03T03:45:09;19.50;61.10
30999;DHT22;20549;50.042;8.968;2022-08-03T03:47:35;19.50;61.30
30999;DHT22;20549;50.042;8.968;2022-08-03T03:50:05;19.50;61.40
30999;DHT22;20549;50.042;8.968;2022-08-03T03:52:31;19.50;61.60
30999;DHT22;20549;50.042;8.968;2022-08-03T03:54:58;19.50;61.70
30999;DHT22;20549;50.042;8.968;2022-08-03T03:57:24;19.40;61.70
30999;DHT22;20549;50.042;8.968;2022-08-03T03:59:51;19.40;61.80
30999;DHT22;20549;50.042;8.968;2022-08-03T04:02:18;19.40;62.00
30999;DHT22;20549;50.042;8.968;2022-08-03T04:04:44;19.40;62.20
30999;DHT22;20549;50.042;8.968;2022-08-03T04:07:31;19.30;62.20
30999;DHT22;20549;50.042;8.968;2022-08-03T04:10:21;19.30;62.20
30999;DHT22;20549;50.042;8.968;2022-08-03T04:13:06;19.30;62.20
30999;DHT22;20549;50.042;8.968;2022-08-03T04:15:32;19.30;62.30
30999;DHT22;20549;50.042;8.968;2022-08-03T04:17:58;19.30;62.60
30999;DHT22;20549;50.042;8.968;2022-08-03T04:20:28;19.20;62.80
30999;DHT22;20549;50.042;8.968;2022-08-03T04:22:54;19.20;62.90
30999;DHT22;20549;50.042;8.968;2022-08-03T04:25:21;19.30;63.00
30999;DHT22;20549;50.042;8.968;2022-08-03T04:27:47;19.20;63.10
30999;DHT22;20549;50.042;8.968;2022-08-03T04:30:14;19.20;63.20
30999;DHT22;20549;50.042;8.968;2022-08-03T04:32:40;19.20;63.40
30999;DHT22;20549;50.042;8.968;2022-08-03T04:35:07;19.30;63.50
30999;DHT22;20549;50.042;8.968;2022-08-03T04:37:46;19.30;63.60
30999;DHT22;20549;50.042;8.968;2022-08-03T04:40:24;19.30;63.70
30999;DHT22;20549;50.042;8.968;2022-08-03T04:42:44;19.30;63.60
30999;DHT22;20549;50.042;8.968;2022-08-03T04:45:11;19.40;63.80
30999;DHT22;20549;50.042;8.968;2022-08-03T04:47:37;19.40;63.90
30999;DHT22;20549;50.042;8.968;2022-08-03T04:50:04;19.50;63.90
30999;DHT22;20549;50.042;8.968;2022-08-03T04:52:30;19.50;63.90
30999;DHT22;20549;50.042;8.968;2022-08-03T04:54:57;19.50;63.90
30999;DHT22;20549;50.042;8.968;2022-08-03T04:57:24;19.60;63.90
30999;DHT22;20549;50.042;8.968;2022-08-03T04:59:51;19.70;63.90
30999;DHT22;20549;50.042;8.968;2022-08-03T05:02:17;19.70;64.20
30999;DHT22;20549;50.042;8.968;2022-08-03T05:04:43;19.90;64.20
30999;DHT22;20549;50.042;8.968;2022-08-03T05:07:10;20.00;64.70
30999;DHT22;20549;50.042;8.968;2022-08-03T05:09:37;20.40;65.40
30999;DHT22;20549;50.042;8.968;2022-08-03T05:12:03;20.70;66.10
30999;DHT22;20549;50.042;8.968;2022-08-03T05:14:30;21.30;66.50
30999;DHT22;20549;50.042;8.968;2022-08-03T05:16:56;21.90;66.50
30999;DHT22;20549;50.042;8.968;2022-08-03T05:19:23;22.60;66.10
30999;DHT22;20549;50.042;8.968;2022-08-03T05:21:49;23.30;65.10
30999;DHT22;20549;50.042;8.968;2022-08-03T05:24:16;24.10;64.00
30999;DHT22;20549;50.042;8.968;2022-08-03T05:26:43;25.00;62.80
30999;DHT22;20549;50.042;8.968;2022-08-03T05:29:09;25.80;61.60
30999;DHT22;20549;50.042;8.968;2022-08-03T05:31:36;26.60;60.20
30999;DHT22;20549;50.042;8.968;2022-08-03T05:34:02;27.40;59.10
30999;DHT22;20549;50.042;8.968;2022-08-03T05:36:29;28.10;58.00
30999;DHT22;20549;50.042;8.968;2022-08-03T05:38:56;28.80;56.80
30999;DHT22;20549;50.042;8.968;2022-08-03T05:41:22;29.50;55.80
30999;DHT22;20549;50.042;8.968;2022-08-03T05:43:50;30.10;54.80
30999;DHT22;20549;50.042;8.968;2022-08-03T05:46:16;30.80;53.70
30999;DHT22;20549;50.042;8.968;2022-08-03T05:48:42;31.40;52.70
30999;DHT22;20549;50.042;8.968;2022-08-03T05:51:09;32.00;51.80
30999;DHT22;20549;50.042;8.968;2022-08-03T05:53:35;32.50;50.90
30999;DHT22;20549;50.042;8.968;2022-08-03T05:56:02;33.00;50.00
30999;DHT22;20549;50.042;8.968;2022-08-03T05:58:28;33.60;49.40
30999;DHT22;20549;50.042;8.968;2022-08-03T06:00:55;34.10;48.70
30999;DHT22;20549;50.042;8.968;2022-08-03T06:03:21;34.60;47.90
30999;DHT22;20549;50.042;8.968;2022-08-03T06:05:48;35.10;47.20
30999;DHT22;20549;50.042;8.968;2022-08-03T06:08:15;35.70;46.60
30999;DHT22;20549;50.042;8.968;2022-08-03T06:10:41;36.20;46.00
30999;DHT22;20549;50.042;8.968;2022-08-03T06:13:08;36.60;45.10
30999;DHT22;20549;50.042;8.968;2022-08-03T06:15:34;37.10;44.40
30999;DHT22;20549;50.042;8.968;2022-08-03T06:18:01;37.60;43.90
30999;DHT22;20549;50.042;8.968;2022-08-03T06:20:28;38.10;43.20
30999;DHT22;20549;50.042;8.968;2022-08-03T06:22:54;38.60;42.40
30999;DHT22;20549;50.042;8.968;2022-08-03T06:25:21;39.00;41.00
30999;DHT22;20549;50.042;8.968;2022-08-03T06:27:47;39.40;40.70
30999;DHT22;20549;50.042;8.968;2022-08-03T06:30:14;39.70;40.20
30999;DHT22;20549;50.042;8.968;2022-08-03T06:32:41;39.90;39.30
30999;DHT22;20549;50.042;8.968;2022-08-03T06:35:08;40.10;38.70
30999;DHT22;20549;50.042;8.968;2022-08-03T06:37:49;40.30;38.30
30999;DHT22;20549;50.042;8.968;2022-08-03T06:40:13;40.50;37.60
30999;DHT22;20549;50.042;8.968;2022-08-03T06:42:39;40.70;37.50
30999;DHT22;20549;50.042;8.968;2022-08-03T06:45:06;40.90;37.10
30999;DHT22;20549;50.042;8.968;2022-08-03T06:47:32;41.10;37.00
30999;DHT22;20549;50.042;8.968;2022-08-03T06:49:59;41.40;36.60
30999;DHT22;20549;50.042;8.968;2022-08-03T06:52:25;41.60;36.00
30999;DHT22;20549;50.042;8.968;2022-08-03T06:54:52;41.80;35.50
30999;DHT22;20549;50.042;8.968;2022-08-03T06:57:18;42.00;35.10
30999;DHT22;20549;50.042;8.968;2022-08-03T06:59:45;42.30;34.70
30999;DHT22;20549;50.042;8.968;2022-08-03T07:02:11;42.60;34.30
30999;DHT22;20549;50.042;8.968;2022-08-03T07:04:38;42.80;34.00
30999;DHT22;20549;50.042;8.968;2022-08-03T07:07:05;43.10;33.70
30999;DHT22;20549;50.042;8.968;2022-08-03T07:09:31;43.50;33.30
30999;DHT22;20549;50.042;8.968;2022-08-03T07:11:58;43.80;33.00
30999;DHT22;20549;50.042;8.968;2022-08-03T07:14:24;44.10;32.40
30999;DHT22;20549;50.042;8.968;2022-08-03T07:16:51;44.40;32.10
30999;DHT22;20549;50.042;8.968;2022-08-03T07:19:18;44.70;31.30
30999;DHT22;20549;50.042;8.968;2022-08-03T07:21:44;45.00;30.90
30999;DHT22;20549;50.042;8.968;2022-08-03T07:24:11;45.30;30.70
30999;DHT22;20549;50.042;8.968;2022-08-03T07:26:37;45.60;30.30
30999;DHT22;20549;50.042;8.968;2022-08-03T07:29:04;45.90;29.70
30999;DHT22;20549;50.042;8.968;2022-08-03T07:31:31;46.30;29.30
30999;DHT22;20549;50.042;8.968;2022-08-03T07:33:57;46.60;29.00
30999;DHT22;20549;50.042;8.968;2022-08-03T07:36:24;47.00;28.80
30999;DHT22;20549;50.042;8.968;2022-08-03T07:38:50;47.20;28.20
30999;DHT22;20549;50.042;8.968;2022-08-03T07:41:17;47.50;27.80
30999;DHT22;20549;50.042;8.968;2022-08-03T07:43:44;47.70;27.50
30999;DHT22;20549;50.042;8.968;2022-08-03T07:46:10;47.90;27.30
30999;DHT22;20549;50.042;8.968;2022-08-03T07:48:37;48.00;27.00
30999;DHT22;20549;50.042;8.968;2022-08-03T07:51:03;48.30;26.90
30999;DHT22;20549;50.042;8.968;2022-08-03T07:53:30;48.50;26.60
30999;DHT22;20549;50.042;8.968;2022-08-03T07:55:56;48.70;26.40
30999;DHT22;20549;50.042;8.968;2022-08-03T07:58:23;48.90;25.60
30999;DHT22;20549;50.042;8.968;2022-08-03T08:00:50;49.10;25.80
30999;DHT22;20549;50.042;8.968;2022-08-03T08:03:16;49.40;25.50
30999;DHT22;20549;50.042;8.968;2022-08-03T08:05:43;49.70;25.20
30999;DHT22;20549;50.042;8.968;2022-08-03T08:08:09;49.90;25.00
30999;DHT22;20549;50.042;8.968;2022-08-03T08:10:36;50.20;24.80
30999;DHT22;20549;50.042;8.968;2022-08-03T08:13:03;50.30;24.60
30999;DHT22;20549;50.042;8.968;2022-08-03T08:15:29;50.50;24.40
30999;DHT22;20549;50.042;8.968;2022-08-03T08:17:57;50.70;24.10
30999;DHT22;20549;50.042;8.968;2022-08-03T08:20:24;50.80;24.00
30999;DHT22;20549;50.042;8.968;2022-08-03T08:22:49;50.90;23.60
30999;DHT22;20549;50.042;8.968;2022-08-03T08:25:16;51.00;23.50
30999;DHT22;20549;50.042;8.968;2022-08-03T08:27:46;51.00;23.30
30999;DHT22;20549;50.042;8.968;2022-08-03T08:30:13;51.00;23.20
30999;DHT22;20549;50.042;8.968;2022-08-03T08:32:39;51.10;23.30
30999;DHT22;20549;50.042;8.968;2022-08-03T08:35:05;51.10;23.00
30999;DHT22;20549;50.042;8.968;2022-08-03T08:37:32;51.20;22.90
30999;DHT22;20549;50.042;8.968;2022-08-03T08:39:58;51.20;22.80
30999;DHT22;20549;50.042;8.968;2022-08-03T08:42:25;51.40;22.80
30999;DHT22;20549;50.042;8.968;2022-08-03T08:44:51;51.50;22.60
30999;DHT22;20549;50.042;8.968;2022-08-03T08:47:18;51.70;22.50
30999;DHT22;20549;50.042;8.968;2022-08-03T08:49:45;51.80;22.40
30999;DHT22;20549;50.042;8.968;2022-08-03T08:52:12;51.90;22.30
30999;DHT22;20549;50.042;8.968;2022-08-03T08:54:38;52.00;22.00
30999;DHT22;20549;50.042;8.968;2022-08-03T08:57:04;52.10;22.00
30999;DHT22;20549;50.042;8.968;2022-08-03T08:59:31;52.20;22.00
30999;DHT22;20549;50.042;8.968;2022-08-03T09:01:58;52.30;21.90
30999;DHT22;20549;50.042;8.968;2022-08-03T09:04:24;52.40;21.70
30999;DHT22;20549;50.042;8.968;2022-08-03T09:06:51;52.50;21.50
30999;DHT22;20549;50.042;8.968;2022-08-03T09:09:17;52.70;21.50
30999;DHT22;20549;50.042;8.968;2022-08-03T09:11:44;52.80;21.40
30999;DHT22;20549;50.042;8.968;2022-08-03T09:14:11;52.70;21.20
30999;DHT22;20549;50.042;8.968;2022-08-03T09:16:37;52.90;21.00
30999;DHT22;20549;50.042;8.968;2022-08-03T09:19:10;52.90;21.50
30999;DHT22;20549;50.042;8.968;2022-08-03T09:21:36;52.70;20.70
30999;DHT22;20549;50.042;8.968;2022-08-03T09:24:04;52.80;20.90
30999;DHT22;20549;50.042;8.968;2022-08-03T09:26:30;52.70;20.80
30999;DHT22;20549;50.042;8.968;2022-08-03T09:28:59;52.80;20.70
30999;DHT22;20549;50.042;8.968;2022-08-03T09:31:35;52.80;20.70
30999;DHT22;20549;50.042;8.968;2022-08-03T09:34:08;52.90;20.60
30999;DHT22;20549;50.042;8.968;2022-08-03T09:36:34;52.90;20.40
30999;DHT22;20549;50.042;8.968;2022-08-03T09:39:04;52.80;20.20
30999;DHT22;20549;50.042;8.968;2022-08-03T09:41:29;52.80;20.10
30999;DHT22;20549;50.042;8.968;2022-08-03T09:43:56;52.50;20.00
30999;DHT22;20549;50.042;8.968;2022-08-03T09:46:22;52.20;20.00
30999;DHT22;20549;50.042;8.968;2022-08-03T09:48:49;51.90;20.00
30999;DHT22;20549;50.042;8.968;2022-08-03T09:51:16;51.50;20.20
30999;DHT22;20549;50.042;8.968;2022-08-03T09:53:43;51.20;20.30
30999;DHT22;20549;50.042;8.968;2022-08-03T09:56:09;50.80;20.40
30999;DHT22;20549;50.042;8.968;2022-08-03T09:58:43;50.70;20.50
30999;DHT22;20549;50.042;8.968;2022-08-03T10:01:03;50.50;20.50
30999;DHT22;20549;50.042;8.968;2022-08-03T10:03:30;50.50;20.60
30999;DHT22;20549;50.042;8.968;2022-08-03T10:05:55;50.30;20.60
30999;DHT22;20549;50.042;8.968;2022-08-03T10:08:22;50.10;20.50
30999;DHT22;20549;50.042;8.968;2022-08-03T10:10:49;49.90;20.50
30999;DHT22;20549;50.042;8.968;2022-08-03T10:13:16;49.60;20.60
30999;DHT22;20549;50.042;8.968;2022-08-03T10:15:42;49.30;20.60
30999;DHT22;20549;50.042;8.968;2022-08-03T10:18:08;49.00;20.60
30999;DHT22;20549;50.042;8.968;2022-08-03T10:20:48;48.70;20.60
30999;DHT22;20549;50.042;8.968;2022-08-03T10:23:13;48.30;20.70
30999;DHT22;20549;50.042;8.968;2022-08-03T10:25:40;47.80;20.70
30999;DHT22;20549;50.042;8.968;2022-08-03T10:28:06;47.40;20.80
30999;DHT22;20549;50.042;8.968;2022-08-03T10:30:33;46.90;20.80
30999;DHT22;20549;50.042;8.968;2022-08-03T10:33:09;46.40;20.30
30999;DHT22;20549;50.042;8.968;2022-08-03T10:35:32;45.80;21.00
30999;DHT22;20549;50.042;8.968;2022-08-03T10:37:59;45.20;21.20
30999;DHT22;20549;50.042;8.968;2022-08-03T10:40:29;44.60;21.40
30999;DHT22;20549;50.042;8.968;2022-08-03T10:42:55;43.90;21.70
30999;DHT22;20549;50.042;8.968;2022-08-03T10:45:24;43.30;22.00
30999;DHT22;20549;50.042;8.968;2022-08-03T10:47:50;42.80;22.20
30999;DHT22;20549;50.042;8.968;2022-08-03T10:50:16;42.40;22.50
30999;DHT22;20549;50.042;8.968;2022-08-03T10:52:59;42.00;22.60
30999;DHT22;20549;50.042;8.968;2022-08-03T10:55:38;41.60;22.80
30999;DHT22;20549;50.042;8.968;2022-08-03T11:01:07;41.00;23.40
30999;DHT22;20549;50.042;8.968;2022-08-03T11:03:33;40.80;23.60
30999;DHT22;20549;50.042;8.968;2022-08-03T11:06:16;40.60;23.60
30999;DHT22;20549;50.042;8.968;2022-08-03T11:08:41;40.40;23.80
30999;DHT22;20549;50.042;8.968;2022-08-03T11:13:56;40.10;24.20
30999;DHT22;20549;50.042;8.968;2022-08-03T11:16:22;39.80;24.00
30999;DHT22;20549;50.042;8.968;2022-08-03T11:19:03;39.60;24.10
30999;DHT22;20549;50.042;8.968;2022-08-03T11:30:09;38.70;24.70
30999;DHT22;20549;50.042;8.968;2022-08-03T11:43:09;38.10;25.60
30999;DHT22;20549;50.042;8.968;2022-08-03T11:45:35;38.10;25.60
30999;DHT22;20549;50.042;8.968;2022-08-03T11:48:22;38.10;25.80
30999;DHT22;20549;50.042;8.968;2022-08-03T11:50:34;38.10;25.90
30999;DHT22;20549;50.042;8.968;2022-08-03T11:52:54;38.20;26.00
30999;DHT22;20549;50.042;8.968;2022-08-03T11:55:21;38.20;25.90
30999;DHT22;20549;50.042;8.968;2022-08-03T11:57:48;38.20;25.90
30999;DHT22;20549;50.042;8.968;2022-08-03T12:00:23;38.20;25.80
30999;DHT22;20549;50.042;8.968;2022-08-03T12:02:56;38.20;25.80
30999;DHT22;20549;50.042;8.968;2022-08-03T12:07:57;38.00;25.80
30999;DHT22;20549;50.042;8.968;2022-08-03T12:10:24;37.90;25.90
30999;DHT22;20549;50.042;8.968;2022-08-03T12:12:57;37.80;26.00
30999;DHT22;20549;50.042;8.968;2022-08-03T12:15:30;37.70;26.00
30999;DHT22;20549;50.042;8.968;2022-08-03T12:17:56;37.70;26.20
30999;DHT22;20549;50.042;8.968;2022-08-03T12:20:23;37.60;26.10
30999;DHT22;20549;50.042;8.968;2022-08-03T12:22:49;37.50;26.20
30999;DHT22;20549;50.042;8.968;2022-08-03T12:25:22;37.50;26.40
30999;DHT22;20549;50.042;8.968;2022-08-03T12:27:48;37.40;26.40
30999;DHT22;20549;50.042;8.968;2022-08-03T12:30:14;37.40;26.40
30999;DHT22;20549;50.042;8.968;2022-08-03T12:32:41;37.40;26.50
30999;DHT22;20549;50.042;8.968;2022-08-03T12:35:08;37.40;26.70
30999;DHT22;20549;50.042;8.968;2022-08-03T12:37:34;37.30;26.60
30999;DHT22;20549;50.042;8.968;2022-08-03T12:40:01;37.30;26.60
30999;DHT22;20549;50.042;8.968;2022-08-03T12:42:34;37.30;26.70
30999;DHT22;20549;50.042;8.968;2022-08-03T12:45:16;37.20;26.60
30999;DHT22;20549;50.042;8.968;2022-08-03T12:47:26;37.20;26.70
30999;DHT22;20549;50.042;8.968;2022-08-03T12:49:53;37.10;26.70
30999;DHT22;20549;50.042;8.968;2022-08-03T12:52:20;37.10;26.80
30999;DHT22;20549;50.042;8.968;2022-08-03T12:54:56;37.00;27.10
30999;DHT22;20549;50.042;8.968;2022-08-03T12:57:22;36.90;27.00
30999;DHT22;20549;50.042;8.968;2022-08-03T12:59:48;36.90;27.00
30999;DHT22;20549;50.042;8.968;2022-08-03T13:02:24;36.80;27.10
30999;DHT22;20549;50.042;8.968;2022-08-03T13:04:42;36.70;27.10
30999;DHT22;20549;50.042;8.968;2022-08-03T13:07:08;36.70;27.20
30999;DHT22;20549;50.042;8.968;2022-08-03T13:12:14;36.70;27.50
30999;DHT22;20549;50.042;8.968;2022-08-03T13:14:39;36.70;27.70
30999;DHT22;20549;50.042;8.968;2022-08-03T13:17:06;36.70;27.70
30999;DHT22;20549;50.042;8.968;2022-08-03T13:19:33;36.80;27.70
30999;DHT22;20549;50.042;8.968;2022-08-03T13:21:59;36.80;27.70
30999;DHT22;20549;50.042;8.968;2022-08-03T13:24:25;36.90;27.80
30999;DHT22;20549;50.042;8.968;2022-08-03T13:26:52;37.00;27.70
30999;DHT22;20549;50.042;8.968;2022-08-03T13:29:18;37.00;27.70
30999;DHT22;20549;50.042;8.968;2022-08-03T13:31:45;37.00;27.80
30999;DHT22;20549;50.042;8.968;2022-08-03T13:34:12;37.10;27.80
30999;DHT22;20549;50.042;8.968;2022-08-03T13:36:38;37.10;27.60
30999;DHT22;20549;50.042;8.968;2022-08-03T13:39:05;37.10;27.60
30999;DHT22;20549;50.042;8.968;2022-08-03T13:41:31;37.10;27.60
30999;DHT22;20549;50.042;8.968;2022-08-03T13:43:58;37.10;27.60
30999;DHT22;20549;50.042;8.968;2022-08-03T13:46:25;37.10;27.70
30999;DHT22;20549;50.042;8.968;2022-08-03T13:48:51;37.10;27.80
30999;DHT22;20549;50.042;8.968;2022-08-03T13:51:18;37.10;27.80
30999;DHT22;20549;50.042;8.968;2022-08-03T13:53:44;37.10;28.00
30999;DHT22;20549;50.042;8.968;2022-08-03T13:56:11;37.10;27.90
30999;DHT22;20549;50.042;8.968;2022-08-03T13:58:38;37.10;28.00
30999;DHT22;20549;50.042;8.968;2022-08-03T14:01:04;37.20;28.00
30999;DHT22;20549;50.042;8.968;2022-08-03T14:03:31;37.20;27.90
30999;DHT22;20549;50.042;8.968;2022-08-03T14:05:57;37.20;27.50
30999;DHT22;20549;50.042;8.968;2022-08-03T14:08:24;37.20;28.00
30999;DHT22;20549;50.042;8.968;2022-08-03T14:10:51;37.20;28.10
30999;DHT22;20549;50.042;8.968;2022-08-03T14:13:17;37.20;28.00
30999;DHT22;20549;50.042;8.968;2022-08-03T14:15:44;37.20;28.00
30999;DHT22;20549;50.042;8.968;2022-08-03T14:18:10;37.20;28.20
30999;DHT22;20549;50.042;8.968;2022-08-03T14:20:37;37.20;28.10
30999;DHT22;20549;50.042;8.968;2022-08-03T14:23:04;37.10;28.10
30999;DHT22;20549;50.042;8.968;2022-08-03T14:25:30;37.10;28.10
30999;DHT22;20549;50.042;8.968;2022-08-03T14:27:57;37.10;28.10
30999;DHT22;20549;50.042;8.968;2022-08-03T14:30:23;37.10;28.20
30999;DHT22;20549;50.042;8.968;2022-08-03T14:32:50;37.00;28.30
30999;DHT22;20549;50.042;8.968;2022-08-03T14:35:16;37.00;28.30
30999;DHT22;20549;50.042;8.968;2022-08-03T14:37:43;37.00;28.40
30999;DHT22;20549;50.042;8.968;2022-08-03T14:40:10;37.00;28.40
30999;DHT22;20549;50.042;8.968;2022-08-03T14:42:36;37.00;28.40
30999;DHT22;20549;50.042;8.968;2022-08-03T14:45:03;37.00;28.40
30999;DHT22;20549;50.042;8.968;2022-08-03T14:47:29;37.00;28.40
30999;DHT22;20549;50.042;8.968;2022-08-03T14:49:56;37.00;28.40
30999;DHT22;20549;50.042;8.968;2022-08-03T14:52:23;36.90;28.30
30999;DHT22;20549;50.042;8.968;2022-08-03T14:54:49;36.90;28.30
30999;DHT22;20549;50.042;8.968;2022-08-03T14:57:16;36.90;28.30
30999;DHT22;20549;50.042;8.968;2022-08-03T14:59:42;36.90;28.40
30999;DHT22;20549;50.042;8.968;2022-08-03T15:02:09;36.90;28.40
30999;DHT22;20549;50.042;8.968;2022-08-03T15:04:35;36.90;28.50
30999;DHT22;20549;50.042;8.968;2022-08-03T15:07:02;36.80;28.60
30999;DHT22;20549;50.042;8.968;2022-08-03T15:09:29;36.80;28.70
30999;DHT22;20549;50.042;8.968;2022-08-03T15:11:55;36.80;28.70
30999;DHT22;20549;50.042;8.968;2022-08-03T15:14:22;36.80;28.90
30999;DHT22;20549;50.042;8.968;2022-08-03T15:16:48;36.80;28.90
30999;DHT22;20549;50.042;8.968;2022-08-03T15:19:15;36.80;28.90
30999;DHT22;20549;50.042;8.968;2022-08-03T15:21:42;36.80;28.90
30999;DHT22;20549;50.042;8.968;2022-08-03T15:24:08;36.80;28.90
30999;DHT22;20549;50.042;8.968;2022-08-03T15:26:35;36.80;28.90
30999;DHT22;20549;50.042;8.968;2022-08-03T15:29:01;36.80;28.90
30999;DHT22;20549;50.042;8.968;2022-08-03T15:31:28;36.80;28.90
30999;DHT22;20549;50.042;8.968;2022-08-03T15:33:55;36.80;28.90
30999;DHT22;20549;50.042;8.968;2022-08-03T15:36:21;36.80;28.90
30999;DHT22;20549;50.042;8.968;2022-08-03T15:38:48;36.80;28.90
30999;DHT22;20549;50.042;8.968;2022-08-03T15:41:14;36.80;28.90
30999;DHT22;20549;50.042;8.968;2022-08-03T15:43:41;36.80;28.90
30999;DHT22;20549;50.042;8.968;2022-08-03T15:46:08;36.70;28.90
30999;DHT22;20549;50.042;8.968;2022-08-03T15:48:34;36.70;28.80
30999;DHT22;20549;50.042;8.968;2022-08-03T15:51:01;36.70;28.90
30999;DHT22;20549;50.042;8.968;2022-08-03T15:53:27;36.70;28.90
30999;DHT22;20549;50.042;8.968;2022-08-03T15:55:54;36.70;29.00
30999;DHT22;20549;50.042;8.968;2022-08-03T15:58:20;36.70;28.90
30999;DHT22;20549;50.042;8.968;2022-08-03T16:00:47;36.70;29.00
30999;DHT22;20549;50.042;8.968;2022-08-03T16:03:14;36.60;28.90
30999;DHT22;20549;50.042;8.968;2022-08-03T16:05:40;36.60;28.90
30999;DHT22;20549;50.042;8.968;2022-08-03T16:08:07;36.60;28.80